Time;durP1;ratioP1;P1;durP2;ratioP2;P2;SDS_P1;SDS_P2;PMS_P1;PMS_P2;Temp;Humidity;BMP_temperature;BMP_pressure;BME280_temperature;BME280_humidity;BME280_pressure;Samples;Min_cycle;Max_cycle;Signal;HPM_P1;HPM_P2
2023/12/13 00:00:11;;;;;;;12.77;8.25;;;7.20;99.90;;;;;;5075175;28;20287;-65
2023/12/13 00:02:37;;;;;;;14.85;7.70;;;7.30;99.90;;;;;;5075217;28;20283;-65
2023/12/13 00:05:05;;;;;;;13.02;6.78;;;7.20;99.90;;;;;;5074747;28;20208;-66
2023/12/13 00:07:32;;;;;;;13.32;7.15;;;7.20;99.90;;;;;;5074492;28;20196;-65
2023/12/13 00:09:59;;;;;;;9.38;6.28;;;7.30;99.90;;;;;;5073949;28;20670;-65
2023/12/13 00:12:27;;;;;;;14.77;6.68;;;7.30;99.90;;;;;;5073768;28;20690;-65
2023/12/13 00:14:55;;;;;;;17.67;7.60;;;7.20;99.90;;;;;;5077378;28;20272;-67
2023/12/13 00:17:22;;;;;;;10.55;6.50;;;7.20;99.90;;;;;;5079172;28;20240;-65
2023/12/13 00:19:48;;;;;;;13.77;7.70;;;7.20;99.90;;;;;;5077527;28;20555;-66
2023/12/13 00:22:15;;;;;;;16.15;7.13;;;7.20;99.90;;;;;;5075678;28;20274;-66
2023/12/13 00:24:42;;;;;;;22.65;7.40;;;7.20;99.90;;;;;;5075369;28;20258;-65
2023/12/13 00:27:09;;;;;;;16.88;7.72;;;7.20;99.90;;;;;;5074623;28;20197;-65
2023/12/13 00:29:38;;;;;;;13.93;7.43;;;7.10;99.90;;;;;;5079068;28;20201;-66
2023/12/13 00:32:06;;;;;;;17.73;7.43;;;7.20;99.90;;;;;;5078710;28;20643;-65
2023/12/13 00:34:33;;;;;;;16.40;6.93;;;7.10;99.90;;;;;;5079979;28;20232;-66
2023/12/13 00:37:00;;;;;;;17.70;7.90;;;7.20;99.90;;;;;;5081159;28;20205;-66
2023/12/13 00:39:27;;;;;;;11.07;7.38;;;7.20;99.90;;;;;;5085456;28;20205;-65
2023/12/13 00:41:54;;;;;;;11.15;7.45;;;7.10;99.90;;;;;;5081633;28;20599;-66
2023/12/13 00:44:20;;;;;;;13.85;7.75;;;7.10;99.90;;;;;;5081141;28;20201;-66
2023/12/13 00:46:49;;;;;;;15.23;7.47;;;7.20;99.90;;;;;;5083698;28;20209;-66
2023/12/13 00:49:15;;;;;;;8.20;7.28;;;7.20;99.90;;;;;;5082256;28;20211;-66
2023/12/13 00:51:42;;;;;;;18.10;8.60;;;7.20;99.90;;;;;;5080642;28;20603;-66
2023/12/13 00:54:09;;;;;;;12.73;6.95;;;7.10;99.90;;;;;;5081336;28;20268;-66
2023/12/13 00:56:36;;;;;;;15.30;8.50;;;7.20;99.90;;;;;;5083997;28;20205;-66
2023/12/13 00:59:03;;;;;;;18.05;8.48;;;7.10;99.90;;;;;;5085285;28;20244;-66
2023/12/13 01:01:30;;;;;;;19.33;8.98;;;7.10;99.90;;;;;;5083090;28;20608;-66
2023/12/13 01:03:58;;;;;;;16.70;8.75;;;7.10;99.90;;;;;;5083602;28;20205;-66
2023/12/13 01:06:25;;;;;;;14.35;7.82;;;7.10;99.90;;;;;;5084255;28;20241;-66
2023/12/13 01:08:52;;;;;;;13.95;7.80;;;7.10;99.90;;;;;;5085783;28;20212;-67
2023/12/13 01:11:23;;;;;;;16.55;8.52;;;7.10;99.90;;;;;;5081856;28;20263;-66
2023/12/13 01:13:50;;;;;;;18.92;7.70;;;7.00;99.90;;;;;;5078971;28;20182;-65
2023/12/13 01:16:17;;;;;;;17.67;7.70;;;6.90;99.90;;;;;;5077646;28;20205;-66
2023/12/13 01:18:44;;;;;;;12.43;7.57;;;6.90;99.90;;;;;;5077605;28;20217;-66
2023/12/13 01:21:12;;;;;;;16.17;7.95;;;6.80;99.90;;;;;;5078020;28;20569;-66
2023/12/13 01:23:39;;;;;;;12.95;8.10;;;6.80;99.90;;;;;;5077386;28;20670;-65
2023/12/13 01:26:06;;;;;;;17.63;8.40;;;6.80;99.90;;;;;;5077176;28;20670;-66
2023/12/13 01:28:32;;;;;;;13.63;7.65;;;6.70;99.90;;;;;;5077990;28;20215;-65
2023/12/13 01:30:59;;;;;;;11.18;8.40;;;6.70;99.90;;;;;;5077939;28;20232;-66
2023/12/13 01:33:26;;;;;;;14.93;8.48;;;6.70;99.90;;;;;;5077418;28;20264;-66
2023/12/13 01:35:53;;;;;;;11.15;7.90;;;6.70;99.90;;;;;;5079446;28;20201;-66
2023/12/13 01:38:21;;;;;;;17.75;9.10;;;6.70;99.90;;;;;;5078688;28;20213;-66
2023/12/13 01:40:51;;;;;;;18.67;7.95;;;6.70;99.90;;;;;;5077372;28;20221;-66
2023/12/13 01:43:24;;;;;;;15.25;8.80;;;6.80;99.90;;;;;;5078365;28;20209;-67
2023/12/13 01:45:53;;;;;;;19.52;9.50;;;6.80;99.90;;;;;;5079088;28;20205;-65
2023/12/13 01:48:22;;;;;;;15.93;8.68;;;6.80;99.90;;;;;;5084282;28;20204;-66
2023/12/13 01:50:49;;;;;;;14.30;9.10;;;6.80;99.90;;;;;;5088046;28;20221;-66
2023/12/13 01:53:18;;;;;;;15.18;8.30;;;6.80;99.90;;;;;;5088260;28;20283;-67
2023/12/13 01:55:47;;;;;;;16.02;8.18;;;6.80;99.90;;;;;;5088106;28;20211;-66
2023/12/13 01:58:15;;;;;;;15.57;9.23;;;6.80;99.90;;;;;;5083424;28;20217;-66
2023/12/13 02:00:42;;;;;;;13.73;8.25;;;6.90;99.90;;;;;;5083881;28;20224;-66
2023/12/13 02:03:12;;;;;;;15.15;8.68;;;6.90;99.90;;;;;;5084016;28;20205;-66
2023/12/13 02:05:40;;;;;;;15.43;8.45;;;6.90;99.90;;;;;;5080996;28;20208;-65
2023/12/13 02:08:07;;;;;;;15.90;9.05;;;7.00;99.90;;;;;;5083641;28;20197;-66
2023/12/13 02:10:34;;;;;;;13.73;7.90;;;7.00;99.90;;;;;;5079110;28;20230;-66
2023/12/13 02:13:02;;;;;;;11.98;8.05;;;7.00;99.90;;;;;;5077711;28;20224;-66
2023/12/13 02:15:34;;;;;;;14.02;8.45;;;7.00;99.90;;;;;;5077150;28;20280;-66
2023/12/13 02:18:02;;;;;;;12.00;8.80;;;7.00;99.90;;;;;;5077060;28;20205;-66
2023/12/13 02:20:28;;;;;;;16.48;9.55;;;7.00;99.90;;;;;;5076745;28;20224;-66
2023/12/13 02:22:57;;;;;;;15.70;9.10;;;6.90;99.90;;;;;;5077056;28;20546;-66
2023/12/13 02:25:37;;;;;;;16.35;8.45;;;6.90;99.90;;;;;;5076642;28;20274;-65
2023/12/13 02:28:05;;;;;;;19.05;9.40;;;6.90;99.90;;;;;;5076100;28;20185;-66
2023/12/13 02:30:32;;;;;;;14.75;7.75;;;6.90;99.90;;;;;;5075946;28;20224;-66
2023/12/13 02:32:59;;;;;;;19.63;8.50;;;6.90;99.90;;;;;;5075666;28;20205;-66
2023/12/13 02:35:26;;;;;;;11.65;7.82;;;6.90;99.90;;;;;;5075913;28;20207;-66
2023/12/13 02:37:53;;;;;;;13.27;8.02;;;7.00;99.90;;;;;;5076171;28;20217;-66
2023/12/13 02:40:22;;;;;;;16.63;8.63;;;7.00;99.90;;;;;;5075840;28;20685;-67
2023/12/13 02:42:49;;;;;;;19.05;8.73;;;7.00;99.90;;;;;;5076315;28;20211;-66
2023/12/13 02:45:16;;;;;;;18.77;8.40;;;7.10;99.90;;;;;;5076720;28;20201;-66
2023/12/13 02:47:42;;;;;;;12.57;8.15;;;7.10;99.90;;;;;;5076092;28;20622;-65
2023/12/13 02:50:11;;;;;;;15.68;9.65;;;7.10;99.90;;;;;;5075609;28;20205;-65
2023/12/13 02:52:37;;;;;;;17.20;9.40;;;7.10;99.90;;;;;;5074634;28;20310;-65
2023/12/13 02:55:05;;;;;;;14.00;8.45;;;7.20;99.90;;;;;;5075601;28;20316;-66
2023/12/13 02:57:34;;;;;;;14.45;9.43;;;7.20;99.90;;;;;;5076576;28;20205;-65
2023/12/13 03:00:00;;;;;;;11.98;8.10;;;7.30;99.90;;;;;;5075283;28;20671;-65
2023/12/13 03:02:27;;;;;;;12.57;8.13;;;7.30;99.90;;;;;;5076258;28;20224;-65
2023/12/13 03:04:54;;;;;;;14.73;8.90;;;7.30;99.90;;;;;;5075314;28;20207;-66
2023/12/13 03:07:22;;;;;;;12.43;9.10;;;7.30;99.90;;;;;;5075500;28;20200;-66
2023/12/13 03:09:49;;;;;;;14.23;9.52;;;7.30;99.90;;;;;;5075411;28;20550;-65
2023/12/13 03:12:16;;;;;;;17.67;9.63;;;7.20;99.90;;;;;;5074816;28;20252;-65
2023/12/13 03:14:44;;;;;;;13.02;8.68;;;7.20;99.90;;;;;;5076034;28;20258;-65
2023/12/13 03:17:11;;;;;;;13.45;9.50;;;7.20;99.90;;;;;;5075060;28;20201;-65
2023/12/13 03:19:37;;;;;;;13.52;9.15;;;7.20;99.90;;;;;;5074723;28;20217;-66
2023/12/13 03:22:04;;;;;;;11.85;8.93;;;7.20;99.90;;;;;;5074870;28;20835;-65
2023/12/13 03:24:31;;;;;;;17.88;9.63;;;7.20;99.90;;;;;;5075288;28;20295;-66
2023/12/13 03:26:58;;;;;;;17.48;9.23;;;7.20;99.90;;;;;;5075476;28;20212;-66
2023/12/13 03:29:25;;;;;;;17.50;9.43;;;7.30;99.90;;;;;;5074931;28;20193;-65
2023/12/13 03:31:53;;;;;;;16.65;10.48;;;7.20;99.90;;;;;;5074621;28;20224;-65
2023/12/13 03:34:19;;;;;;;15.10;9.27;;;7.30;99.90;;;;;;5074532;28;20220;-66
2023/12/13 03:36:47;;;;;;;18.58;9.60;;;7.30;99.90;;;;;;5074537;28;20690;-65
2023/12/13 03:39:14;;;;;;;16.50;9.15;;;7.30;99.90;;;;;;5074606;28;20217;-65
2023/12/13 03:41:40;;;;;;;14.75;9.52;;;7.30;99.90;;;;;;5074737;28;20221;-66
2023/12/13 03:44:08;;;;;;;22.27;9.50;;;7.30;99.90;;;;;;5074698;28;20201;-65
2023/12/13 03:46:34;;;;;;;14.05;9.48;;;7.30;99.90;;;;;;5074417;28;20227;-65
2023/12/13 03:49:03;;;;;;;14.27;9.13;;;7.30;99.90;;;;;;5074617;28;20576;-66
2023/12/13 03:51:30;;;;;;;10.65;7.22;;;7.40;99.90;;;;;;5074463;28;20270;-65
2023/12/13 03:53:57;;;;;;;14.73;9.40;;;7.40;99.90;;;;;;5074310;28;20215;-65
2023/12/13 03:56:24;;;;;;;14.73;8.30;;;7.40;99.90;;;;;;5074461;28;20203;-66
2023/12/13 03:58:51;;;;;;;11.30;6.60;;;7.40;99.90;;;;;;5074248;28;20217;-66
2023/12/13 04:01:18;;;;;;;10.40;6.47;;;7.40;99.90;;;;;;5074199;28;20227;-65
2023/12/13 04:03:44;;;;;;;9.23;6.10;;;7.40;99.90;;;;;;5073537;28;20204;-65
2023/12/13 04:06:12;;;;;;;8.65;6.25;;;7.40;99.90;;;;;;5074460;28;20586;-65
2023/12/13 04:08:39;;;;;;;10.00;6.85;;;7.40;99.90;;;;;;5073978;28;20663;-65
2023/12/13 04:12:44;;;;;;;7.22;6.40;;;7.50;99.90;;;;;;5100059;28;20541;-65
2023/12/13 04:15:12;;;;;;;11.30;7.00;;;7.50;99.90;;;;;;5101431;28;20200;-65
2023/12/13 04:17:38;;;;;;;8.90;6.30;;;7.50;99.90;;;;;;5102488;28;20577;-66
2023/12/13 04:20:06;;;;;;;11.07;6.10;;;7.50;99.90;;;;;;5098643;28;20204;-65
2023/12/13 04:22:33;;;;;;;6.05;5.45;;;7.50;99.90;;;;;;5099658;28;20196;-66
2023/12/13 04:25:00;;;;;;;7.63;6.03;;;7.50;99.90;;;;;;5096639;28;20204;-66
2023/12/13 04:27:27;;;;;;;7.03;5.35;;;7.50;99.90;;;;;;5094373;28;20210;-66
2023/12/13 04:29:55;;;;;;;10.18;6.30;;;7.50;99.90;;;;;;5095398;28;20204;-66
2023/12/13 04:32:22;;;;;;;7.20;5.28;;;7.50;99.90;;;;;;5093426;28;20231;-66
2023/12/13 04:34:48;;;;;;;9.25;6.07;;;7.50;99.90;;;;;;5093022;28;20196;-65
2023/12/13 04:37:15;;;;;;;8.38;5.32;;;7.50;99.90;;;;;;5092869;28;20263;-66
2023/12/13 04:39:42;;;;;;;8.20;5.63;;;7.50;99.90;;;;;;5092020;28;20666;-66
2023/12/13 04:42:09;;;;;;;5.90;4.47;;;7.50;99.90;;;;;;5091717;28;20239;-66
2023/12/13 04:44:35;;;;;;;6.90;5.50;;;7.50;99.90;;;;;;5091099;28;20670;-66
2023/12/13 04:47:04;;;;;;;5.43;4.25;;;7.50;99.90;;;;;;5090928;28;20595;-65
2023/12/13 04:49:31;;;;;;;7.07;5.25;;;7.50;99.90;;;;;;5090178;28;20204;-65
2023/12/13 04:51:57;;;;;;;7.47;5.07;;;7.60;99.90;;;;;;5089630;28;20221;-65
2023/12/13 04:54:24;;;;;;;7.38;4.70;;;7.60;99.90;;;;;;5090207;28;20223;-65
2023/12/13 04:56:51;;;;;;;6.05;4.65;;;7.60;99.90;;;;;;5090810;28;20204;-66
2023/12/13 04:59:17;;;;;;;6.32;4.43;;;7.60;99.90;;;;;;5090999;28;20211;-66
2023/12/13 05:01:44;;;;;;;5.85;4.43;;;7.60;99.90;;;;;;5091931;28;20226;-65
2023/12/13 05:04:12;;;;;;;5.30;4.25;;;7.60;99.90;;;;;;5091355;28;20197;-66
2023/12/13 05:06:39;;;;;;;5.93;4.38;;;7.60;99.90;;;;;;5090945;28;20204;-65
2023/12/13 05:09:07;;;;;;;8.02;4.90;;;7.60;99.90;;;;;;5094749;28;20200;-66
2023/12/13 05:11:34;;;;;;;5.68;4.20;;;7.60;99.90;;;;;;5095861;28;20311;-64
2023/12/13 05:14:00;;;;;;;7.22;4.60;;;7.70;99.90;;;;;;5094883;28;20200;-65
2023/12/13 05:16:27;;;;;;;7.53;4.88;;;7.70;99.90;;;;;;5091751;28;20236;-66
2023/12/13 05:18:54;;;;;;;7.78;4.85;;;7.70;99.90;;;;;;5092134;28;20578;-65
2023/12/13 05:21:22;;;;;;;5.07;4.50;;;7.70;99.90;;;;;;5090962;28;20649;-66
2023/12/13 05:23:49;;;;;;;5.75;5.03;;;7.70;99.90;;;;;;5079347;28;20573;-66
2023/12/13 05:26:16;;;;;;;8.10;5.28;;;7.70;99.90;;;;;;5077650;28;20211;-65
2023/12/13 05:28:43;;;;;;;6.45;4.35;;;7.80;99.90;;;;;;5077218;28;20201;-66
2023/12/13 05:31:18;;;;;;;5.95;4.70;;;7.70;99.90;;;;;;5077268;28;20691;-67
2023/12/13 05:33:45;;;;;;;6.82;5.55;;;7.80;99.90;;;;;;5077161;28;20235;-65
2023/12/13 05:36:12;;;;;;;6.03;4.03;;;7.80;99.90;;;;;;5076676;28;20213;-66
2023/12/13 05:38:41;;;;;;;6.68;5.45;;;7.80;99.90;;;;;;5077522;28;20561;-66
2023/12/13 05:41:08;;;;;;;7.57;4.70;;;7.80;99.90;;;;;;5077240;28;20224;-66
2023/12/13 05:43:35;;;;;;;7.90;5.70;;;7.80;99.90;;;;;;5077030;28;20237;-66
2023/12/13 05:46:02;;;;;;;6.35;5.45;;;7.80;99.90;;;;;;5076537;28;20208;-65
2023/12/13 05:48:28;;;;;;;6.13;5.40;;;7.70;99.90;;;;;;5076957;28;20208;-66
2023/12/13 05:50:55;;;;;;;6.30;5.63;;;7.80;99.90;;;;;;5076313;28;20223;-65
2023/12/13 05:53:22;;;;;;;7.95;5.93;;;7.70;99.90;;;;;;5076097;28;20212;-65
2023/12/13 05:55:50;;;;;;;8.52;6.13;;;7.80;99.90;;;;;;5076993;28;20201;-67
2023/12/13 05:58:17;;;;;;;6.90;5.00;;;7.80;99.90;;;;;;5075964;28;20201;-66
2023/12/13 06:00:44;;;;;;;7.35;5.18;;;7.80;99.90;;;;;;5076519;28;20221;-64
2023/12/13 06:03:11;;;;;;;5.88;5.25;;;7.80;99.90;;;;;;5076641;28;20220;-66
2023/12/13 06:05:38;;;;;;;5.85;5.25;;;7.70;99.90;;;;;;5076581;28;20304;-65
2023/12/13 06:08:05;;;;;;;5.47;4.97;;;7.80;99.90;;;;;;5076817;28;20655;-66
2023/12/13 06:10:32;;;;;;;7.90;5.85;;;7.80;99.90;;;;;;5075780;28;20260;-66
2023/12/13 06:13:00;;;;;;;10.50;6.07;;;7.80;99.90;;;;;;5076058;28;20210;-66
2023/12/13 06:15:26;;;;;;;8.65;5.90;;;7.80;99.90;;;;;;5076246;28;20209;-66
2023/12/13 06:17:53;;;;;;;9.00;6.07;;;7.80;99.90;;;;;;5076158;28;20550;-65
2023/12/13 06:20:21;;;;;;;7.32;6.38;;;7.80;99.90;;;;;;5076041;28;20201;-66
2023/12/13 06:22:47;;;;;;;7.38;6.18;;;7.80;99.90;;;;;;5076127;28;20254;-66
2023/12/13 06:25:14;;;;;;;8.15;6.65;;;7.80;99.90;;;;;;5076088;28;20204;-64
2023/12/13 06:27:41;;;;;;;10.20;6.95;;;7.80;99.90;;;;;;5076009;28;20207;-66
2023/12/13 06:30:11;;;;;;;8.65;5.72;;;7.70;99.90;;;;;;5079818;28;20244;-66
2023/12/13 06:32:37;;;;;;;8.95;7.25;;;7.70;99.90;;;;;;5087516;28;20271;-66
2023/12/13 06:35:05;;;;;;;9.23;7.35;;;7.70;99.90;;;;;;5083868;28;20577;-66
2023/12/13 06:37:32;;;;;;;13.02;7.78;;;7.70;99.90;;;;;;5084304;28;20207;-65
2023/12/13 06:39:59;;;;;;;9.43;8.13;;;7.70;99.90;;;;;;5083487;28;20205;-66
2023/12/13 06:42:28;;;;;;;10.75;8.48;;;7.70;99.90;;;;;;5081838;28;20311;-66
2023/12/13 06:44:55;;;;;;;13.60;8.82;;;7.70;99.90;;;;;;5080916;28;20201;-66
2023/12/13 06:47:23;;;;;;;9.48;7.70;;;7.70;99.90;;;;;;5085244;28;20205;-65
2023/12/13 06:49:50;;;;;;;9.00;7.75;;;7.70;99.90;;;;;;5084296;28;20201;-65
2023/12/13 06:52:16;;;;;;;12.23;8.68;;;7.80;99.90;;;;;;5075825;28;20221;-66
2023/12/13 06:54:43;;;;;;;14.07;8.85;;;7.70;99.90;;;;;;5075801;28;20208;-66
2023/12/13 06:57:10;;;;;;;10.57;8.23;;;7.80;99.90;;;;;;5076442;28;20205;-66
2023/12/13 06:59:37;;;;;;;11.57;8.52;;;7.80;99.90;;;;;;5076053;28;20204;-66
2023/12/13 07:02:04;;;;;;;9.65;8.40;;;7.80;99.90;;;;;;5077505;28;20303;-67
2023/12/13 07:04:32;;;;;;;14.70;9.77;;;7.80;99.90;;;;;;5077936;28;20197;-66
2023/12/13 07:06:58;;;;;;;13.13;9.38;;;7.80;99.90;;;;;;5077419;28;20216;-67
2023/12/13 07:09:25;;;;;;;12.05;8.40;;;7.80;99.90;;;;;;5077570;28;20193;-67
2023/12/13 07:11:52;;;;;;;16.52;9.20;;;7.80;99.90;;;;;;5075128;28;20235;-67
2023/12/13 07:14:19;;;;;;;11.35;9.50;;;7.80;99.90;;;;;;5075771;28;20212;-65
2023/12/13 07:16:45;;;;;;;13.30;9.02;;;7.80;99.90;;;;;;5075572;28;20201;-66
2023/12/13 07:19:12;;;;;;;15.02;10.07;;;7.80;99.90;;;;;;5082598;28;20196;-66
2023/12/13 07:21:40;;;;;;;15.50;9.48;;;7.80;99.90;;;;;;5084255;28;20710;-67
2023/12/13 07:24:07;;;;;;;10.38;8.52;;;7.80;99.90;;;;;;5086530;28;20207;-66
2023/12/13 07:26:34;;;;;;;12.10;8.85;;;7.80;99.90;;;;;;5085052;28;20269;-66
2023/12/13 07:29:00;;;;;;;13.05;9.07;;;7.90;99.90;;;;;;5084767;28;20205;-66
2023/12/13 07:31:27;;;;;;;12.65;10.43;;;7.90;99.90;;;;;;5083331;28;20247;-65
2023/12/13 07:33:54;;;;;;;12.75;9.85;;;7.90;99.90;;;;;;5085737;28;20208;-66
2023/12/13 07:36:21;;;;;;;12.88;10.10;;;7.90;99.90;;;;;;5079425;28;20685;-66
2023/12/13 07:38:50;;;;;;;11.18;9.15;;;7.90;99.90;;;;;;5075376;28;20716;-67
2023/12/13 07:41:17;;;;;;;14.70;10.45;;;7.90;99.90;;;;;;5075488;28;20702;-66
2023/12/13 07:43:44;;;;;;;14.52;10.05;;;7.90;99.90;;;;;;5075889;28;20197;-66
2023/12/13 07:46:11;;;;;;;14.73;11.05;;;7.90;99.90;;;;;;5075595;28;20236;-66
2023/12/13 07:48:41;;;;;;;15.70;9.93;;;7.90;99.90;;;;;;5075842;28;20591;-65
2023/12/13 07:51:07;;;;;;;14.82;9.68;;;7.90;99.90;;;;;;5074938;28;20713;-66
2023/12/13 07:53:34;;;;;;;14.52;10.60;;;7.90;99.90;;;;;;5075318;28;20232;-66
2023/12/13 07:56:02;;;;;;;13.52;10.00;;;7.90;99.90;;;;;;5075659;28;20200;-66
2023/12/13 07:58:29;;;;;;;14.15;10.68;;;7.90;99.90;;;;;;5076202;28;20205;-66
2023/12/13 08:00:56;;;;;;;16.85;10.65;;;7.90;99.90;;;;;;5075762;28;20591;-66
2023/12/13 08:03:23;;;;;;;14.75;10.50;;;7.90;99.90;;;;;;5076020;28;20571;-67
2023/12/13 08:05:49;;;;;;;13.40;10.88;;;8.00;99.90;;;;;;5075388;28;20211;-66
2023/12/13 08:08:16;;;;;;;13.27;10.68;;;7.90;99.90;;;;;;5074687;28;20223;-66
2023/12/13 08:10:46;;;;;;;16.27;11.55;;;8.00;99.90;;;;;;5075090;28;20246;-65
2023/12/13 08:13:14;;;;;;;12.40;10.65;;;8.00;99.90;;;;;;5075114;28;20209;-65
2023/12/13 08:15:41;;;;;;;16.55;11.55;;;8.00;99.90;;;;;;5074667;28;20580;-66
2023/12/13 08:18:08;;;;;;;19.52;11.65;;;8.10;99.90;;;;;;5074616;28;20201;-65
2023/12/13 08:20:35;;;;;;;13.52;10.70;;;8.10;99.90;;;;;;5074072;28;20239;-65
2023/12/13 08:23:03;;;;;;;15.73;11.35;;;8.10;99.90;;;;;;5074710;28;20284;-65
2023/12/13 08:25:30;;;;;;;15.40;11.25;;;8.20;99.90;;;;;;5075058;28;20283;-66
2023/12/13 08:27:57;;;;;;;16.17;11.48;;;8.20;99.90;;;;;;5074796;28;20211;-65
2023/12/13 08:30:25;;;;;;;15.05;10.60;;;8.30;99.90;;;;;;5075161;28;20701;-65
2023/12/13 08:32:52;;;;;;;13.80;11.00;;;8.30;99.90;;;;;;5074409;28;20217;-65
2023/12/13 08:35:19;;;;;;;13.20;10.45;;;8.30;99.90;;;;;;5073671;28;20207;-65
2023/12/13 08:37:45;;;;;;;14.48;11.70;;;8.40;99.90;;;;;;5074197;28;20272;-64
2023/12/13 08:40:12;;;;;;;13.20;9.60;;;8.40;99.90;;;;;;5074191;28;20201;-65
2023/12/13 08:42:39;;;;;;;14.95;9.85;;;8.40;99.90;;;;;;5073957;28;20292;-66
2023/12/13 08:45:07;;;;;;;11.43;9.45;;;8.50;99.90;;;;;;5073837;28;20208;-65
2023/12/13 08:47:35;;;;;;;12.98;8.90;;;8.50;99.90;;;;;;5074648;28;20201;-65
2023/12/13 08:50:02;;;;;;;15.48;10.35;;;8.60;99.90;;;;;;5076100;28;20212;-66
2023/12/13 08:52:29;;;;;;;11.43;9.13;;;8.60;99.90;;;;;;5078967;28;20217;-66
2023/12/13 08:54:56;;;;;;;11.00;8.82;;;8.60;99.90;;;;;;5084133;28;20551;-66
2023/12/13 08:57:22;;;;;;;11.00;9.00;;;8.60;99.90;;;;;;5082199;28;20207;-64
2023/12/13 08:59:49;;;;;;;13.30;11.00;;;8.70;99.90;;;;;;5081658;28;20468;-65
2023/12/13 09:02:16;;;;;;;13.07;10.27;;;8.70;99.90;;;;;;5081657;28;20223;-67
2023/12/13 09:04:44;;;;;;;11.63;9.90;;;8.70;99.90;;;;;;5081690;28;20816;-66
2023/12/13 09:07:11;;;;;;;9.30;8.02;;;8.80;99.90;;;;;;5079406;28;20829;-65
2023/12/13 09:09:38;;;;;;;10.53;8.87;;;8.80;99.90;;;;;;5079051;28;20205;-64
2023/12/13 09:12:06;;;;;;;12.23;9.63;;;8.80;99.90;;;;;;5078132;28;20513;-66
2023/12/13 09:14:33;;;;;;;14.87;10.13;;;8.90;99.90;;;;;;5078285;28;20529;-65
2023/12/13 09:17:01;;;;;;;15.85;12.00;;;9.00;99.90;;;;;;5078776;28;20461;-66
2023/12/13 09:19:27;;;;;;;13.33;10.63;;;9.00;99.90;;;;;;5079772;28;20227;-66
2023/12/13 09:21:56;;;;;;;13.60;9.53;;;9.10;99.90;;;;;;5079387;28;20466;-65
2023/12/13 09:24:21;;;;;;;14.17;10.53;;;9.10;99.90;;;;;;5080075;28;20439;-64
2023/12/13 09:26:48;;;;;;;11.33;8.50;;;9.20;99.90;;;;;;5079713;28;20525;-64
2023/12/13 09:29:15;;;;;;;13.60;8.70;;;9.30;99.90;;;;;;5079546;28;20200;-66
2023/12/13 09:31:42;;;;;;;8.50;7.67;;;9.30;99.90;;;;;;5079805;28;20459;-65
2023/12/13 09:34:09;;;;;;;9.67;7.40;;;9.40;99.90;;;;;;5083348;28;20489;-66
2023/12/13 09:36:35;;;;;;;7.50;6.80;;;9.40;99.90;;;;;;5084875;28;20530;-65
2023/12/13 09:39:04;;;;;;;7.87;6.40;;;9.40;99.90;;;;;;5081697;28;20932;-66
2023/12/13 09:41:36;;;;;;;7.00;6.27;;;9.40;99.90;;;;;;5081256;28;20459;-66
2023/12/13 09:44:03;;;;;;;8.10;6.03;;;9.40;99.90;;;;;;5080989;28;20430;-65
2023/12/13 09:46:30;;;;;;;7.33;5.97;;;9.30;99.90;;;;;;5078360;28;20439;-64
2023/12/13 09:48:57;;;;;;;9.30;6.60;;;9.30;99.90;;;;;;5076995;28;20509;-65
2023/12/13 09:51:25;;;;;;;9.83;7.43;;;9.40;99.90;;;;;;5077346;28;20471;-65
2023/12/13 09:53:53;;;;;;;9.20;7.70;;;9.40;99.90;;;;;;5078257;28;20478;-65
2023/12/13 09:56:21;;;;;;;8.47;7.13;;;9.50;99.90;;;;;;5077830;28;20439;-67
2023/12/13 09:58:48;;;;;;;7.80;6.33;;;9.60;99.90;;;;;;5077235;28;20450;-66
2023/12/13 10:01:16;;;;;;;9.70;6.50;;;9.60;99.90;;;;;;5077545;28;20470;-65
2023/12/13 10:03:43;;;;;;;6.97;6.27;;;9.60;99.90;;;;;;5078241;28;20465;-65
2023/12/13 10:06:10;;;;;;;10.63;7.53;;;9.60;99.90;;;;;;5078067;28;20866;-65
2023/12/13 10:08:37;;;;;;;11.50;6.33;;;9.60;99.90;;;;;;5077300;28;20443;-66
2023/12/13 10:11:05;;;;;;;11.77;6.33;;;9.50;99.90;;;;;;5077712;28;20841;-65
2023/12/13 10:13:34;;;;;;;10.93;7.10;;;9.50;99.90;;;;;;5077375;28;20479;-65
2023/12/13 10:16:09;;;;;;;11.53;8.90;;;9.50;99.90;;;;;;5077959;28;20439;-65
2023/12/13 10:18:36;;;;;;;13.37;9.70;;;9.50;99.90;;;;;;5077754;28;20427;-66
2023/12/13 10:21:04;;;;;;;14.03;8.80;;;9.50;99.90;;;;;;5076675;28;20478;-65
2023/12/13 10:23:31;;;;;;;9.07;6.33;;;9.40;99.90;;;;;;5076803;28;20986;-66
2023/12/13 10:25:58;;;;;;;15.43;11.70;;;9.40;99.90;;;;;;5079487;28;20870;-65
2023/12/13 10:28:25;;;;;;;15.50;10.10;;;9.40;99.90;;;;;;5079380;28;20483;-66
2023/12/13 10:30:53;;;;;;;11.43;8.27;;;9.30;99.90;;;;;;5080986;28;20474;-66
2023/12/13 10:33:20;;;;;;;10.33;7.83;;;9.30;99.90;;;;;;5082970;28;20992;-66
2023/12/13 10:35:47;;;;;;;9.63;7.27;;;9.20;99.90;;;;;;5083235;28;20450;-64
2023/12/13 10:38:16;;;;;;;9.27;7.93;;;9.30;99.90;;;;;;5083232;28;20443;-66
2023/12/13 10:40:43;;;;;;;8.93;7.53;;;9.30;99.90;;;;;;5077176;28;20316;-65
2023/12/13 10:43:11;;;;;;;9.43;6.90;;;9.30;99.90;;;;;;5076099;28;20952;-66
2023/12/13 10:45:40;;;;;;;10.67;6.50;;;9.30;99.90;;;;;;5075500;28;21007;-65
2023/12/13 10:48:11;;;;;;;6.87;5.87;;;9.30;99.90;;;;;;5075849;28;20449;-67
2023/12/13 10:50:39;;;;;;;6.73;5.80;;;9.30;99.90;;;;;;5076543;28;20470;-65
2023/12/13 10:53:08;;;;;;;8.30;6.03;;;9.40;99.90;;;;;;5077098;28;20992;-65
2023/12/13 10:55:35;;;;;;;10.23;6.70;;;9.40;99.90;;;;;;5077554;28;20227;-65
2023/12/13 10:58:02;;;;;;;7.50;5.73;;;9.50;99.90;;;;;;5075967;28;20443;-67
2023/12/13 11:00:30;;;;;;;8.77;5.67;;;9.60;99.90;;;;;;5076743;28;20471;-65
2023/12/13 11:03:02;;;;;;;6.53;4.33;;;9.60;99.90;;;;;;5075419;28;20449;-66
2023/12/13 11:05:30;;;;;;;6.63;4.80;;;9.60;99.90;;;;;;5075585;28;20424;-65
2023/12/13 11:07:57;;;;;;;7.83;5.50;;;9.60;99.90;;;;;;5075759;28;20441;-65
2023/12/13 11:10:24;;;;;;;6.27;4.63;;;9.60;99.90;;;;;;5076457;28;20463;-66
2023/12/13 11:12:52;;;;;;;6.90;4.80;;;9.70;99.90;;;;;;5077508;28;20467;-65
2023/12/13 11:15:20;;;;;;;4.90;4.37;;;9.80;99.90;;;;;;5076695;28;20477;-66
2023/12/13 11:17:49;;;;;;;6.43;4.17;;;9.90;99.90;;;;;;5076487;28;20450;-66
2023/12/13 11:20:17;;;;;;;4.47;3.80;;;10.00;99.90;;;;;;5075122;28;20439;-65
2023/12/13 11:22:47;;;;;;;4.27;3.87;;;10.00;99.90;;;;;;5075310;28;20439;-63
2023/12/13 11:25:14;;;;;;;8.23;4.13;;;10.10;99.90;;;;;;5075566;28;20543;-65
2023/12/13 11:27:50;;;;;;;9.03;4.40;;;10.10;99.90;;;;;;5074691;28;20454;-64
2023/12/13 11:30:19;;;;;;;6.37;4.60;;;10.20;99.90;;;;;;5075895;28;20430;-66
2023/12/13 11:32:47;;;;;;;3.87;3.33;;;10.30;99.90;;;;;;5075024;28;20854;-67
2023/12/13 11:35:16;;;;;;;4.20;3.27;;;10.40;99.90;;;;;;5075691;28;20861;-65
2023/12/13 11:37:47;;;;;;;4.03;3.60;;;10.40;99.90;;;;;;5075431;28;21035;-66
2023/12/13 11:40:15;;;;;;;3.40;3.10;;;10.40;99.90;;;;;;5075543;28;20430;-66
2023/12/13 11:42:42;;;;;;;6.33;3.23;;;10.40;99.90;;;;;;5075230;28;20967;-67
2023/12/13 11:45:09;;;;;;;5.33;3.30;;;10.50;99.90;;;;;;5076416;28;20447;-65
2023/12/13 11:47:36;;;;;;;5.40;2.60;;;10.50;99.90;;;;;;5074957;28;20435;-67
2023/12/13 11:50:03;;;;;;;3.63;3.27;;;10.60;99.90;;;;;;5074913;28;20759;-65
2023/12/13 11:52:30;;;;;;;9.90;5.37;;;10.60;99.90;;;;;;5076215;28;20446;-66
2023/12/13 11:55:00;;;;;;;9.57;4.90;;;10.60;99.90;;;;;;5076445;28;20498;-66
2023/12/13 11:57:28;;;;;;;7.87;5.17;;;10.60;99.90;;;;;;5076225;28;20538;-65
2023/12/13 11:59:55;;;;;;;7.83;5.37;;;10.70;99.90;;;;;;5076051;28;20444;-66
2023/12/13 12:02:22;;;;;;;4.50;3.53;;;10.70;99.90;;;;;;5076602;28;21010;-66
2023/12/13 12:04:49;;;;;;;4.30;3.90;;;10.70;99.90;;;;;;5078075;28;20448;-67
2023/12/13 12:07:17;;;;;;;2.60;2.40;;;10.60;99.90;;;;;;5081559;28;20447;-66
2023/12/13 12:09:47;;;;;;;3.10;2.80;;;10.60;99.90;;;;;;5082637;28;20534;-66
2023/12/13 12:12:15;;;;;;;7.03;3.33;;;10.60;99.90;;;;;;5081674;28;20478;-66
2023/12/13 12:14:47;;;;;;;3.47;2.97;;;10.60;99.90;;;;;;5078866;28;21003;-64
2023/12/13 12:17:19;;;;;;;3.60;3.00;;;10.60;99.90;;;;;;5076888;28;20428;-65
2023/12/13 12:19:45;;;;;;;3.60;3.00;;;10.60;99.90;;;;;;5076204;28;20459;-66
2023/12/13 12:22:12;;;;;;;3.13;2.70;;;10.60;99.90;;;;;;5077412;28;20463;-67
2023/12/13 12:24:39;;;;;;;4.63;3.70;;;10.60;99.90;;;;;;5076190;28;20936;-66
2023/12/13 12:27:09;;;;;;;4.17;3.77;;;10.50;99.90;;;;;;5075984;28;20447;-65
2023/12/13 12:29:36;;;;;;;4.60;3.77;;;10.40;99.90;;;;;;5075790;28;20439;-65
2023/12/13 12:32:08;;;;;;;5.30;4.37;;;10.30;99.90;;;;;;5076205;28;20459;-65
2023/12/13 12:34:36;;;;;;;3.77;3.00;;;10.30;99.90;;;;;;5080275;28;20498;-65
2023/12/13 12:37:03;;;;;;;5.60;4.57;;;10.20;99.90;;;;;;5078998;28;20439;-66
2023/12/13 12:39:30;;;;;;;6.40;4.90;;;10.20;99.90;;;;;;5078783;28;20455;-66
2023/12/13 12:41:57;;;;;;;4.30;2.93;;;10.20;99.90;;;;;;5080353;28;20461;-66
2023/12/13 12:44:24;;;;;;;3.37;2.70;;;10.10;99.90;;;;;;5079847;28;20465;-66
2023/12/13 12:46:51;;;;;;;2.60;2.40;;;10.10;99.90;;;;;;5079507;28;20442;-66
2023/12/13 12:49:19;;;;;;;3.10;2.60;;;10.10;99.90;;;;;;5078399;28;20541;-66